createdAt,value
2022-08-05T00:00:56.010Z,11.67
2022-08-05T00:03:42.346Z,14.00
2022-08-05T00:06:29.243Z,15.00
2022-08-05T00:08:55.470Z,14.00
2022-08-05T00:11:34.432Z,13.00
2022-08-05T00:14:02.167Z,15.00
2022-08-05T00:16:35.584Z,13.50
2022-08-05T00:19:04.034Z,13.67
2022-08-05T00:21:31.434Z,14.33
2022-08-05T00:24:09.846Z,12.00
2022-08-05T00:26:37.640Z,14.00
2022-08-05T00:29:05.055Z,14.67
2022-08-05T00:31:53.458Z,15.00
2022-08-05T00:34:54.150Z,13.67
2022-08-05T00:37:12.567Z,14.67
2022-08-05T00:39:44.272Z,13.33
2022-08-05T00:42:31.956Z,13.67
2022-08-05T00:44:58.843Z,15.00
2022-08-05T00:47:25.923Z,14.50
2022-08-05T00:49:52.398Z,14.00
2022-08-05T00:52:28.562Z,16.00
2022-08-05T00:54:56.336Z,15.00
2022-08-05T00:57:25.196Z,14.00
2022-08-05T00:59:59.088Z,15.67
2022-08-05T01:02:25.567Z,14.00
2022-08-05T01:04:52.058Z,16.00
2022-08-05T01:07:18.541Z,15.00
2022-08-05T01:09:45.943Z,16.00
2022-08-05T01:12:22.153Z,14.50
2022-08-05T01:14:48.633Z,13.00
2022-08-05T01:17:16.055Z,14.33
2022-08-05T01:20:01.788Z,15.33
2022-08-05T01:22:29.651Z,15.50
2022-08-05T01:24:58.404Z,15.00
2022-08-05T01:27:25.211Z,15.00
2022-08-05T01:29:52.692Z,14.67
2022-08-05T01:32:21.165Z,14.00
2022-08-05T01:34:47.657Z,15.50
2022-08-05T01:37:24.523Z,16.33
2022-08-05T01:39:52.767Z,15.67
2022-08-05T01:42:21.614Z,13.00
2022-08-05T01:44:54.234Z,17.00
2022-08-05T01:47:21.473Z,16.00
2022-08-05T01:50:01.312Z,15.00
2022-08-05T01:52:29.218Z,15.50
2022-08-05T01:54:57.780Z,16.00
2022-08-05T01:58:10.721Z,17.00
2022-08-05T02:00:12.627Z,15.50
2022-08-05T02:02:39.128Z,17.00
2022-08-05T02:05:17.788Z,15.50
2022-08-05T02:08:00.134Z,16.50
2022-08-05T02:10:28.659Z,18.00
2022-08-05T02:12:55.297Z,18.00
2022-08-05T02:15:21.810Z,16.00
2022-08-05T02:18:28.357Z,16.50
2022-08-05T02:20:39.069Z,18.00
2022-08-05T02:23:05.731Z,18.00
2022-08-05T02:25:49.184Z,16.00
2022-08-05T02:28:16.969Z,17.50
2022-08-05T02:30:56.679Z,18.50
2022-08-05T02:33:36.133Z,17.50
2022-08-05T02:36:04.773Z,19.50
2022-08-05T02:38:35.000Z,19.50
2022-08-05T02:41:14.611Z,18.00
2022-08-05T02:44:06.886Z,16.50
2022-08-05T02:46:30.448Z,19.00
2022-08-05T02:48:57.948Z,19.50
2022-08-05T02:51:28.530Z,17.00
2022-08-05T02:54:11.834Z,17.00
2022-08-05T02:56:58.320Z,18.50
2022-08-05T02:59:27.102Z,16.00
2022-08-05T03:01:54.369Z,19.50
2022-08-05T03:04:20.880Z,18.00
2022-08-05T03:06:56.305Z,18.00
2022-08-05T03:09:36.315Z,18.50
2022-08-05T03:12:05.272Z,17.50
2022-08-05T03:14:31.810Z,14.50
2022-08-05T03:16:59.177Z,16.00
2022-08-05T03:19:34.513Z,16.00
2022-08-05T03:22:03.166Z,18.00
2022-08-05T03:24:31.667Z,15.50
2022-08-05T03:27:00.197Z,17.00
2022-08-05T03:29:45.705Z,19.00
2022-08-05T03:32:14.373Z,18.50
2022-08-05T03:34:41.065Z,16.00
2022-08-05T03:37:07.696Z,18.50
2022-08-05T03:39:38.136Z,18.00
2022-08-05T03:42:14.883Z,18.50
2022-08-05T03:44:42.522Z,15.00
2022-08-05T03:47:09.928Z,19.00
2022-08-05T03:49:51.449Z,14.00
2022-08-05T03:52:37.149Z,15.50
2022-08-05T03:56:04.638Z,18.00
2022-08-05T03:57:54.776Z,20.00
2022-08-05T04:00:21.265Z,16.00
2022-08-05T04:02:58.077Z,14.50
2022-08-05T04:05:27.963Z,13.67
2022-08-05T04:08:00.845Z,14.50
2022-08-05T04:10:27.666Z,16.00
2022-08-05T04:12:54.707Z,16.00
2022-08-05T04:15:21.375Z,18.00
2022-08-05T04:17:56.207Z,17.50
2022-08-05T04:20:24.024Z,16.50
2022-08-05T04:22:51.456Z,17.00
2022-08-05T04:25:18.873Z,19.00
2022-08-05T04:27:57.298Z,17.00
2022-08-05T04:30:26.636Z,14.33
2022-08-05T04:32:53.189Z,16.00
2022-08-05T04:35:20.654Z,18.00
2022-08-05T04:38:02.272Z,17.00
2022-08-05T04:40:33.978Z,16.00
2022-08-05T04:43:00.471Z,18.00
2022-08-05T04:45:47.956Z,17.00
2022-08-05T04:48:16.580Z,16.00
2022-08-05T04:51:03.021Z,15.50
2022-08-05T04:53:33.695Z,16.00
2022-08-05T04:56:33.214Z,17.50
2022-08-05T04:58:49.455Z,20.50
2022-08-05T05:02:06.090Z,19.00
2022-08-05T05:04:04.579Z,17.00
2022-08-05T05:06:38.686Z,18.50
2022-08-05T05:09:17.140Z,17.50
2022-08-05T05:11:53.155Z,19.00
2022-08-05T05:14:31.247Z,21.00
2022-08-05T05:16:59.551Z,19.50
2022-08-05T05:19:36.366Z,17.50
2022-08-05T05:22:23.965Z,17.00
2022-08-05T05:24:57.302Z,18.00
2022-08-05T05:27:45.767Z,19.00
2022-08-05T05:30:15.567Z,20.00
2022-08-05T05:33:00.759Z,20.67
2022-08-05T05:35:34.238Z,20.00
2022-08-05T05:38:05.757Z,16.67
2022-08-05T05:40:36.045Z,16.50
2022-08-05T05:43:03.846Z,16.00
2022-08-05T05:45:32.467Z,15.00
2022-08-05T05:48:06.810Z,15.00
2022-08-05T05:50:35.728Z,13.33
2022-08-05T05:53:21.894Z,13.50
2022-08-05T05:55:51.910Z,14.00
2022-08-05T05:58:32.046Z,12.00
2022-08-05T06:01:12.297Z,10.50
2022-08-05T06:04:01.078Z,10.00
2022-08-05T06:06:28.073Z,10.00
2022-08-05T06:08:58.630Z,11.00
2022-08-05T06:11:26.104Z,10.00
2022-08-05T06:13:57.115Z,9.60
2022-08-05T06:16:30.284Z,8.00
2022-08-05T06:19:00.061Z,9.00
2022-08-05T06:21:36.491Z,8.00
2022-08-05T06:24:04.258Z,8.00
2022-08-05T06:26:34.972Z,8.80
2022-08-05T06:29:06.061Z,9.00
2022-08-05T06:31:33.686Z,10.00
2022-08-05T06:34:07.338Z,8.40
2022-08-05T06:36:57.076Z,9.60
2022-08-05T06:39:27.373Z,7.50
2022-08-05T06:41:54.471Z,7.00
2022-08-05T06:44:23.666Z,8.50
2022-08-05T06:46:50.954Z,9.00
2022-08-05T06:49:17.765Z,9.00
2022-08-05T06:51:46.315Z,7.75
2022-08-05T06:54:19.048Z,7.60
2022-08-05T06:56:55.154Z,6.33
2022-08-05T06:59:38.617Z,7.00
2022-08-05T07:02:05.347Z,8.00
2022-08-05T07:04:31.799Z,7.00
2022-08-05T07:07:02.238Z,7.67
2022-08-05T07:09:32.365Z,9.50
2022-08-05T07:12:03.820Z,8.00
2022-08-05T07:14:32.278Z,7.00
2022-08-05T07:17:58.595Z,7.00
2022-08-05T07:22:35.453Z,8.00
2022-08-05T07:25:22.752Z,8.00
2022-08-05T07:27:58.123Z,8.00
2022-08-05T07:30:32.431Z,7.50
2022-08-05T07:32:59.947Z,6.00
2022-08-05T07:36:04.135Z,7.00
2022-08-05T07:38:32.234Z,6.50
2022-08-05T07:41:17.172Z,7.50
2022-08-05T07:43:47.407Z,9.33
2022-08-05T07:46:24.840Z,7.00
2022-08-05T07:49:04.076Z,7.50
2022-08-05T07:51:36.610Z,8.00
2022-08-05T07:54:04.101Z,8.00
2022-08-05T07:57:00.793Z,8.00
2022-08-05T07:59:23.275Z,7.83
2022-08-05T08:02:05.266Z,8.00
2022-08-05T08:04:37.395Z,8.00
2022-08-05T08:07:07.174Z,7.75
2022-08-05T08:09:33.925Z,7.00
2022-08-05T08:12:09.093Z,7.00
2022-08-05T08:14:40.910Z,8.00
2022-08-05T08:17:08.165Z,6.50
2022-08-05T08:20:21.080Z,8.00
2022-08-05T08:22:22.123Z,6.00
2022-08-05T08:24:54.241Z,7.00
2022-08-05T08:27:39.968Z,6.67
2022-08-05T08:30:27.649Z,6.75
2022-08-05T08:33:02.516Z,6.75
2022-08-05T08:35:40.895Z,6.67
2022-08-05T08:38:11.843Z,7.00
2022-08-05T08:40:45.587Z,6.67
2022-08-05T08:45:16.774Z,6.75
2022-08-05T08:46:05.188Z,5.33
2022-08-05T08:48:41.477Z,7.00
2022-08-05T08:52:01.730Z,6.00
2022-08-05T08:54:06.024Z,7.00
2022-08-05T08:56:36.387Z,8.14
2022-08-05T08:59:19.702Z,7.75
2022-08-05T09:01:57.282Z,7.00
2022-08-05T09:04:30.993Z,6.50
2022-08-05T09:06:58.734Z,7.00
2022-08-05T09:09:34.580Z,7.00
2022-08-05T09:12:12.414Z,8.00
2022-08-05T09:14:56.576Z,7.00
2022-08-05T09:17:40.924Z,5.00
2022-08-05T09:20:11.519Z,8.20
2022-08-05T09:22:38.345Z,7.00
2022-08-05T09:25:23.915Z,6.25
2022-08-05T09:28:06.544Z,8.00
2022-08-05T09:30:33.077Z,7.33
2022-08-05T09:32:59.446Z,7.00
2022-08-05T09:35:27.116Z,7.33
2022-08-05T09:38:11.928Z,7.00
2022-08-05T09:40:52.625Z,8.00
2022-08-05T09:43:21.215Z,8.00
2022-08-05T09:46:06.757Z,9.00
2022-08-05T09:48:34.060Z,7.00
2022-08-05T09:51:00.552Z,8.00
2022-08-05T09:53:55.031Z,8.00
2022-08-05T09:56:15.035Z,9.00
2022-08-05T09:58:42.346Z,8.00
2022-08-05T10:01:13.744Z,7.00
2022-08-05T10:03:58.665Z,7.00
2022-08-05T10:06:26.163Z,8.00
2022-08-05T10:08:56.109Z,8.00
2022-08-05T10:11:23.211Z,7.00
2022-08-05T10:13:49.663Z,8.00
2022-08-05T10:16:23.123Z,7.20
2022-08-05T10:18:52.396Z,7.50
2022-08-05T10:21:18.815Z,8.00
2022-08-05T10:23:59.031Z,6.00
2022-08-05T10:26:31.666Z,9.00
2022-08-05T10:28:59.278Z,7.50
2022-08-05T10:32:52.605Z,8.50
2022-08-05T10:34:13.987Z,6.00
2022-08-05T10:36:40.698Z,7.00
2022-08-05T10:39:11.758Z,8.57
2022-08-05T10:41:46.757Z,7.00
2022-08-05T10:44:13.663Z,9.00
2022-08-05T10:46:40.051Z,7.33
2022-08-05T10:49:10.171Z,7.33
2022-08-05T10:51:40.192Z,6.00
2022-08-05T10:54:28.272Z,6.83
2022-08-05T10:56:55.333Z,6.33
2022-08-05T11:00:03.223Z,6.67
2022-08-05T11:02:08.710Z,5.67
2022-08-05T11:04:41.260Z,5.00
2022-08-05T11:07:09.386Z,6.00
2022-08-05T11:09:45.385Z,6.00
2022-08-05T11:12:14.277Z,5.00
2022-08-05T11:15:01.286Z,5.67
2022-08-05T11:17:58.034Z,6.00
2022-08-05T11:20:18.205Z,5.67
2022-08-05T11:22:49.676Z,4.00
2022-08-05T11:26:05.175Z,5.00
2022-08-05T11:28:03.781Z,4.00
2022-08-05T11:30:30.137Z,4.00
2022-08-05T11:32:56.907Z,4.33
2022-08-05T11:35:23.230Z,3.00
2022-08-05T11:38:29.464Z,4.00
2022-08-05T11:40:39.017Z,4.00
2022-08-05T11:43:05.413Z,4.00
2022-08-05T11:46:27.025Z,4.00
2022-08-05T11:48:19.723Z,4.00
2022-08-05T11:50:46.127Z,3.00
2022-08-05T11:53:13.344Z,4.00
2022-08-05T11:55:41.942Z,4.00
2022-08-05T11:58:11.973Z,5.00
2022-08-05T12:00:39.040Z,5.00
2022-08-05T12:03:07.905Z,7.00
2022-08-05T12:05:39.667Z,5.00
2022-08-05T12:08:10.542Z,5.33
2022-08-05T12:10:38.569Z,5.00
2022-08-05T12:13:16.920Z,6.00
2022-08-05T12:15:45.412Z,6.33
2022-08-05T12:18:16.736Z,6.50
2022-08-05T12:20:46.107Z,7.83
2022-08-05T12:23:13.382Z,8.00
2022-08-05T12:25:40.635Z,6.00
2022-08-05T12:28:10.552Z,8.00
2022-08-05T12:30:45.837Z,8.00
2022-08-05T12:33:27.954Z,9.60
2022-08-05T12:36:01.068Z,8.00
2022-08-05T12:38:30.205Z,8.00
2022-08-05T12:40:58.040Z,8.00
2022-08-05T12:43:24.533Z,8.00
2022-08-05T12:45:58.435Z,8.50
2022-08-05T12:48:32.329Z,7.00
2022-08-05T12:50:59.403Z,9.00
2022-08-05T12:53:37.116Z,9.00
2022-08-05T12:56:05.270Z,10.00
2022-08-05T12:58:55.693Z,8.50
2022-08-05T13:02:03.462Z,11.00
2022-08-05T13:04:21.034Z,10.00
2022-08-05T13:06:51.903Z,9.00
2022-08-05T13:09:28.590Z,11.50
2022-08-05T13:12:02.558Z,10.00
2022-08-05T13:14:36.093Z,11.00
2022-08-05T13:17:04.081Z,10.00
2022-08-05T13:19:40.354Z,10.00
2022-08-05T13:22:28.275Z,10.50
2022-08-05T13:25:00.700Z,9.33
2022-08-05T13:27:37.693Z,10.33
2022-08-05T13:30:34.544Z,10.00
2022-08-05T13:32:51.757Z,11.00
2022-08-05T13:35:22.091Z,10.00
2022-08-05T13:37:58.538Z,11.67
2022-08-05T13:40:51.608Z,12.00
2022-08-05T13:43:22.139Z,12.00
2022-08-05T13:45:48.792Z,14.00
2022-08-05T13:49:00.396Z,11.67
2022-08-05T13:51:04.783Z,11.00
2022-08-05T13:53:31.274Z,11.00
2022-08-05T13:56:01.950Z,11.33
2022-08-05T13:58:30.328Z,11.00
2022-08-05T14:00:57.491Z,10.00
2022-08-05T14:03:24.220Z,10.50
2022-08-05T14:06:24.965Z,10.00
2022-08-05T14:08:37.152Z,11.00
2022-08-05T14:11:20.275Z,10.00
2022-08-05T14:13:49.197Z,11.33
2022-08-05T14:16:22.400Z,10.00
2022-08-05T14:18:49.852Z,11.33
2022-08-05T14:22:06.997Z,10.33
2022-08-05T14:24:03.634Z,9.50
2022-08-05T14:26:38.531Z,8.00
2022-08-05T14:29:16.126Z,11.00
2022-08-05T14:32:02.186Z,9.00
2022-08-05T14:34:29.888Z,9.00
2022-08-05T14:37:02.045Z,9.00
2022-08-05T14:39:28.579Z,10.00
2022-08-05T14:42:19.363Z,10.00
2022-08-05T14:44:42.103Z,10.00
2022-08-05T14:47:09.402Z,10.00
2022-08-05T14:49:59.744Z,10.00
2022-08-05T14:52:50.437Z,9.00
2022-08-05T14:55:10.594Z,9.20
2022-08-05T14:57:54.633Z,8.80
2022-08-05T15:00:25.235Z,8.50
2022-08-05T15:02:55.837Z,9.00
2022-08-05T15:05:30.048Z,8.00
2022-08-05T15:08:10.645Z,8.00
2022-08-05T15:10:38.854Z,8.50
2022-08-05T15:13:09.904Z,9.67
2022-08-05T15:15:55.784Z,9.00
2022-08-05T15:18:22.852Z,9.00
2022-08-05T15:20:49.525Z,2.00
2022-08-05T15:23:16.031Z,9.00
2022-08-05T15:25:52.362Z,8.00
2022-08-05T15:28:27.103Z,11.00
2022-08-05T15:30:53.962Z,10.00
2022-08-05T15:34:05.291Z,11.00
2022-08-05T15:36:16.643Z,10.00
2022-08-05T15:38:44.728Z,9.00
2022-08-05T15:41:20.792Z,10.50
2022-08-05T15:43:50.829Z,10.00
2022-08-05T15:46:19.237Z,7.60
2022-08-05T15:48:53.062Z,9.00
2022-08-05T15:52:13.080Z,11.00
2022-08-05T15:54:15.175Z,10.00
2022-08-05T15:56:43.651Z,10.67
2022-08-05T15:59:10.298Z,10.00
2022-08-05T16:01:52.624Z,10.00
2022-08-05T16:04:20.590Z,9.33
2022-08-05T16:06:53.169Z,10.00
2022-08-05T16:09:22.105Z,10.00
2022-08-05T16:11:52.760Z,11.00
2022-08-05T16:14:20.428Z,11.33
2022-08-05T16:16:49.534Z,10.67
2022-08-05T16:19:25.409Z,9.33
2022-08-05T16:22:04.082Z,10.33
2022-08-05T16:24:39.529Z,11.00
2022-08-05T16:27:09.357Z,10.00
2022-08-05T16:29:37.626Z,10.33
2022-08-05T16:32:04.313Z,11.00
2022-08-05T16:34:31.111Z,10.00
2022-08-05T16:36:57.529Z,10.00
2022-08-05T16:40:04.851Z,10.00
2022-08-05T16:42:17.535Z,9.33
2022-08-05T16:44:45.933Z,11.00
2022-08-05T16:47:28.733Z,11.00
2022-08-05T16:50:03.739Z,10.33
2022-08-05T16:52:32.721Z,9.00
2022-08-05T16:55:00.182Z,10.00
2022-08-05T16:57:39.985Z,9.00
2022-08-05T17:00:14.078Z,9.00
2022-08-05T17:02:40.671Z,10.00
2022-08-05T17:05:07.944Z,11.00
2022-08-05T17:07:43.783Z,11.33
2022-08-05T17:10:20.955Z,9.50
2022-08-05T17:12:53.858Z,10.00
2022-08-05T17:15:20.879Z,9.00
2022-08-05T17:17:55.115Z,10.67
2022-08-05T17:20:21.868Z,9.00
2022-08-05T17:22:55.462Z,10.00
2022-08-05T17:25:39.547Z,10.67
2022-08-05T17:28:07.793Z,11.00
2022-08-05T17:30:50.710Z,10.00
2022-08-05T17:33:19.981Z,10.00
2022-08-05T17:36:08.139Z,10.00
2022-08-05T17:38:33.859Z,10.00
2022-08-05T17:41:02.340Z,11.33
2022-08-05T17:43:47.265Z,10.00
2022-08-05T17:46:16.904Z,9.67
2022-08-05T17:48:47.555Z,11.00
2022-08-05T17:51:21.515Z,10.67
2022-08-05T17:53:50.889Z,11.50
2022-08-05T17:56:22.783Z,11.00
2022-08-05T17:58:49.435Z,10.50
2022-08-05T18:01:16.712Z,11.00
2022-08-05T18:03:59.803Z,11.00
2022-08-05T18:06:31.647Z,9.67
2022-08-05T18:08:59.697Z,10.00
2022-08-05T18:11:33.074Z,11.00
2022-08-05T18:14:00.145Z,9.50
2022-08-05T18:16:27.405Z,10.00
2022-08-05T18:18:54.700Z,11.00
2022-08-05T18:21:26.342Z,10.00
2022-08-05T18:23:55.402Z,10.00
2022-08-05T18:26:27.585Z,9.00
2022-08-05T18:28:56.647Z,10.00
2022-08-05T18:31:23.887Z,11.67
2022-08-05T18:33:51.626Z,10.00
2022-08-05T18:36:19.204Z,11.50
2022-08-05T18:38:45.926Z,13.00
2022-08-05T18:41:55.403Z,8.00
2022-08-05T18:44:05.775Z,12.50
2022-08-05T18:46:34.234Z,11.00
2022-08-05T18:49:01.596Z,10.33
2022-08-05T18:52:03.069Z,12.00
2022-08-05T18:54:17.761Z,12.00
2022-08-05T18:56:51.208Z,12.00
2022-08-05T18:59:43.994Z,12.00
2022-08-05T19:02:11.487Z,12.33
2022-08-05T19:05:02.932Z,13.00
2022-08-05T19:07:46.035Z,11.33
2022-08-05T19:10:13.834Z,11.00
2022-08-05T19:12:41.153Z,12.00
2022-08-05T19:15:45.071Z,11.00
2022-08-05T19:18:08.373Z,13.00
2022-08-05T19:20:36.325Z,13.00
2022-08-05T19:23:07.718Z,13.00
2022-08-05T19:25:43.331Z,15.00
2022-08-05T19:28:10.967Z,12.67
2022-08-05T19:30:37.428Z,13.00
2022-08-05T19:33:07.092Z,13.00
2022-08-05T19:35:55.982Z,13.00
2022-08-05T19:38:26.508Z,14.00
2022-08-05T19:40:53.285Z,14.00
2022-08-05T19:43:31.195Z,15.00
2022-08-05T19:46:16.679Z,14.00
2022-08-05T19:48:54.703Z,12.00
2022-08-05T19:52:05.555Z,15.50
2022-08-05T19:54:21.838Z,14.00
2022-08-05T19:56:54.114Z,15.00
2022-08-05T20:00:00.473Z,15.00
2022-08-05T20:02:08.197Z,15.00
2022-08-05T20:04:34.675Z,17.00
2022-08-05T20:07:01.158Z,16.50
2022-08-05T20:09:28.446Z,13.50
2022-08-05T20:11:55.840Z,14.00
2022-08-05T20:14:27.099Z,13.67
2022-08-05T20:16:53.809Z,16.50
2022-08-05T20:19:22.038Z,17.50
2022-08-05T20:21:49.538Z,16.00
2022-08-05T20:24:16.344Z,14.00
2022-08-05T20:26:42.856Z,15.00
2022-08-05T20:29:26.372Z,15.50
2022-08-05T20:31:57.948Z,16.00
2022-08-05T20:34:24.897Z,17.00
2022-08-05T20:36:51.391Z,15.00
2022-08-05T20:39:18.841Z,16.50
2022-08-05T20:41:46.575Z,16.50
2022-08-05T20:44:18.694Z,15.50
2022-08-05T20:46:55.853Z,16.50
2022-08-05T20:49:24.470Z,16.00
2022-08-05T20:51:54.020Z,16.00
2022-08-05T20:54:21.583Z,16.00
2022-08-05T20:56:49.074Z,17.00
2022-08-05T20:59:19.306Z,16.00
2022-08-05T21:01:54.635Z,17.50
2022-08-05T21:04:27.243Z,6.50
2022-08-05T21:06:53.839Z,19.50
2022-08-05T21:09:21.168Z,17.33
2022-08-05T21:12:09.824Z,16.00
2022-08-05T21:14:35.561Z,19.00
2022-08-05T21:17:02.120Z,19.00
2022-08-05T21:19:47.582Z,19.00
2022-08-05T21:22:23.167Z,18.00
2022-08-05T21:24:51.807Z,18.00
2022-08-05T21:27:18.706Z,15.00
2022-08-05T21:29:51.997Z,17.00
2022-08-05T21:32:21.428Z,14.00
2022-08-05T21:35:06.909Z,19.00
2022-08-05T21:37:41.239Z,17.00
2022-08-05T21:40:13.627Z,16.50
2022-08-05T21:42:45.164Z,18.50
2022-08-05T21:45:13.145Z,17.50
2022-08-05T21:47:56.976Z,15.00
2022-08-05T21:50:25.292Z,18.00
2022-08-05T21:52:51.796Z,19.00
2022-08-05T21:55:18.285Z,17.00
2022-08-05T21:58:05.677Z,17.00
2022-08-05T22:00:33.202Z,18.00
2022-08-05T22:03:01.245Z,18.50
2022-08-05T22:05:27.778Z,17.50
2022-08-05T22:08:22.301Z,18.00
2022-08-05T22:10:51.533Z,19.00
2022-08-05T22:14:19.431Z,19.00
2022-08-05T22:16:20.422Z,16.00
2022-08-05T22:18:54.518Z,19.00
2022-08-05T22:21:25.299Z,18.00
2022-08-05T22:24:01.086Z,18.00
2022-08-05T22:26:31.094Z,18.00
2022-08-05T22:28:58.098Z,17.50
2022-08-05T22:31:29.934Z,16.00
2022-08-05T22:34:01.630Z,17.00
2022-08-05T22:36:29.694Z,20.00
2022-08-05T22:38:57.179Z,17.50
2022-08-05T22:42:09.472Z,19.00
2022-08-05T22:44:19.292Z,17.00
2022-08-05T22:46:47.699Z,17.00
2022-08-05T22:50:18.446Z,18.00
2022-08-05T22:52:07.313Z,18.00
2022-08-05T22:54:39.987Z,18.00
2022-08-05T22:57:16.268Z,20.00
2022-08-05T22:59:53.608Z,20.00
2022-08-05T23:02:29.633Z,15.00
2022-08-05T23:04:57.540Z,18.00
2022-08-05T23:07:24.037Z,17.00
2022-08-05T23:10:01.647Z,20.00
2022-08-05T23:12:29.039Z,18.00
2022-08-05T23:14:59.548Z,18.00
2022-08-05T23:17:34.158Z,20.00
2022-08-05T23:20:02.698Z,18.00
2022-08-05T23:22:30.978Z,18.50
2022-08-05T23:24:57.561Z,19.00
2022-08-05T23:27:28.962Z,18.00
2022-08-05T23:29:58.960Z,18.50
2022-08-05T23:32:26.953Z,18.50
2022-08-05T23:34:53.753Z,18.00
2022-08-05T23:37:21.112Z,19.67
2022-08-05T23:39:53.765Z,19.00
2022-08-05T23:42:29.091Z,18.33
2022-08-05T23:44:57.322Z,17.50
2022-08-05T23:47:25.323Z,19.00
2022-08-05T23:49:52.146Z,18.00
2022-08-05T23:52:25.083Z,19.50
2022-08-05T23:54:52.973Z,16.00
2022-08-05T23:57:20.323Z,18.00
